createdAt,value
2023-03-16T00:02:04.752Z,100062.00
2023-03-16T00:04:32.444Z,100060.34
2023-03-16T00:06:59.805Z,100046.84
2023-03-16T00:09:31.275Z,100045.72
2023-03-16T00:12:04.591Z,100057.97
2023-03-16T00:14:32.300Z,100058.94
2023-03-16T00:16:59.784Z,100067.09
2023-03-16T00:19:27.060Z,100061.31
2023-03-16T00:21:54.436Z,100062.13
2023-03-16T00:24:25.082Z,100053.53
2023-03-16T00:26:54.949Z,100071.22
2023-03-16T00:29:25.064Z,100039.34
2023-03-16T00:31:52.475Z,100052.41
2023-03-16T00:34:19.851Z,100053.81
2023-03-16T00:36:47.189Z,100068.66
2023-03-16T00:39:14.955Z,100056.78
2023-03-16T00:41:43.005Z,100064.91
2023-03-16T00:44:10.459Z,100070.25
2023-03-16T00:46:37.814Z,100061.44
2023-03-16T00:49:05.165Z,100067.47
2023-03-16T00:51:34.021Z,100062.13
2023-03-16T00:54:01.405Z,100074.09
2023-03-16T00:56:29.338Z,100072.75
2023-03-16T00:58:58.059Z,100062.81
2023-03-16T01:01:27.518Z,100056.00
2023-03-16T01:03:55.090Z,100041.34
2023-03-16T01:06:22.636Z,100063.72
2023-03-16T01:08:49.983Z,100062.44
2023-03-16T01:11:18.617Z,100065.91
2023-03-16T01:13:49.428Z,100058.19
2023-03-16T01:16:19.196Z,100071.63
2023-03-16T01:18:49.994Z,100071.44
2023-03-16T01:21:17.990Z,100071.63
2023-03-16T01:23:45.339Z,100078.97
2023-03-16T01:26:12.883Z,100060.94
2023-03-16T01:28:40.237Z,100068.19
2023-03-16T01:31:09.435Z,100068.88
2023-03-16T01:33:37.129Z,100065.91
2023-03-16T01:36:09.051Z,100074.00
2023-03-16T01:38:43.990Z,100070.28
2023-03-16T01:41:11.575Z,100066.22
2023-03-16T01:43:39.572Z,100065.22
2023-03-16T01:46:07.075Z,100073.25
2023-03-16T01:49:12.821Z,100079.56
2023-03-16T01:51:50.864Z,100083.63
2023-03-16T01:54:24.474Z,100087.88
2023-03-16T01:57:16.180Z,100103.50
2023-03-16T01:59:48.833Z,100099.97
2023-03-16T02:02:18.876Z,100086.47
2023-03-16T02:04:54.542Z,100098.28
2023-03-16T02:07:24.771Z,100082.91
2023-03-16T02:09:55.002Z,100114.78
2023-03-16T02:12:24.643Z,100109.94
2023-03-16T02:14:55.083Z,100103.41
2023-03-16T02:17:25.506Z,100117.97
2023-03-16T02:20:24.710Z,100113.81
2023-03-16T02:22:55.788Z,100095.38
2023-03-16T02:25:25.189Z,100123.41
2023-03-16T02:28:02.429Z,100123.28
2023-03-16T02:30:30.973Z,100113.00
2023-03-16T02:33:01.819Z,100114.88
2023-03-16T02:35:29.161Z,100119.53
2023-03-16T02:37:56.520Z,100121.69
2023-03-16T02:40:30.732Z,100128.66
2023-03-16T02:43:05.751Z,100118.56
2023-03-16T02:45:43.639Z,100122.28
2023-03-16T02:48:27.492Z,100116.94
2023-03-16T02:50:54.926Z,100134.38
2023-03-16T02:53:22.694Z,100127.44
2023-03-16T02:55:50.227Z,100124.28
2023-03-16T02:58:18.356Z,100128.66
2023-03-16T03:00:47.170Z,100131.31
2023-03-16T03:03:17.053Z,100124.47
2023-03-16T03:05:44.407Z,100130.59
2023-03-16T03:08:11.753Z,100120.41
2023-03-16T03:10:39.419Z,100131.09
2023-03-16T03:13:07.454Z,100126.47
2023-03-16T03:15:35.149Z,100127.94
2023-03-16T03:18:07.523Z,100126.84
2023-03-16T03:20:34.856Z,100137.84
2023-03-16T03:23:03.159Z,100145.75
2023-03-16T03:25:30.495Z,100144.72
2023-03-16T03:27:58.027Z,100144.34
2023-03-16T03:30:26.186Z,100164.03
2023-03-16T03:32:53.900Z,100144.25
2023-03-16T03:35:22.059Z,100167.22
2023-03-16T03:37:49.895Z,100160.28
2023-03-16T03:40:18.440Z,100154.53
2023-03-16T03:42:48.547Z,100165.44
2023-03-16T03:45:16.418Z,100180.28
2023-03-16T03:47:44.410Z,100182.44
2023-03-16T03:50:16.650Z,100176.06
2023-03-16T03:52:52.416Z,100196.69
2023-03-16T03:55:19.918Z,100189.75
2023-03-16T03:57:47.272Z,100195.50
2023-03-16T04:00:14.944Z,100189.94
2023-03-16T04:02:43.714Z,100204.78
2023-03-16T04:05:19.949Z,100201.19
2023-03-16T04:07:55.098Z,100209.84
2023-03-16T04:10:27.796Z,100198.56
2023-03-16T04:12:58.836Z,100217.53
2023-03-16T04:15:27.352Z,100218.03
2023-03-16T04:18:04.056Z,100217.91
2023-03-16T04:20:31.658Z,100225.25
2023-03-16T04:22:58.968Z,100218.25
2023-03-16T04:25:26.776Z,100226.78
2023-03-16T04:27:54.400Z,100207.81
2023-03-16T04:30:24.258Z,100222.59
2023-03-16T04:32:55.323Z,100241.69
2023-03-16T04:35:23.813Z,100239.41
2023-03-16T04:37:56.906Z,100219.44
2023-03-16T04:40:31.380Z,100240.63
2023-03-16T04:43:08.345Z,100235.28
2023-03-16T04:45:36.442Z,100238.25
2023-03-16T04:48:04.100Z,100242.22
2023-03-16T04:50:31.508Z,100246.63
2023-03-16T04:52:58.782Z,100246.69
2023-03-16T04:55:27.035Z,100245.38
2023-03-16T04:57:54.538Z,100253.59
2023-03-16T05:00:23.751Z,100254.97
2023-03-16T05:03:04.274Z,100261.97
2023-03-16T05:05:31.788Z,100270.84
2023-03-16T05:07:59.215Z,100266.44
2023-03-16T05:10:29.063Z,100271.91
2023-03-16T05:12:57.718Z,100282.81
2023-03-16T05:15:25.171Z,100281.72
2023-03-16T05:18:02.823Z,100273.63
2023-03-16T05:20:30.438Z,100285.81
2023-03-16T05:23:00.667Z,100281.06
2023-03-16T05:25:31.318Z,100290.09
2023-03-16T05:28:02.579Z,100294.38
2023-03-16T05:30:36.907Z,100291.97
2023-03-16T05:33:07.011Z,100292.47
2023-03-16T05:35:35.131Z,100301.78
2023-03-16T05:38:06.764Z,100304.34
2023-03-16T05:40:37.395Z,100316.56
2023-03-16T05:43:34.424Z,100309.41
2023-03-16T05:46:02.376Z,100304.59
2023-03-16T05:48:29.767Z,100323.28
2023-03-16T05:50:59.073Z,100310.22
2023-03-16T05:53:29.370Z,100325.47
2023-03-16T05:56:03.813Z,100324.19
2023-03-16T05:58:34.061Z,100312.84
2023-03-16T06:01:06.177Z,100322.56
2023-03-16T06:03:33.743Z,100336.97
2023-03-16T06:06:02.209Z,100327.91
2023-03-16T06:08:38.840Z,100344.81
2023-03-16T06:11:12.228Z,100354.06
2023-03-16T06:13:40.349Z,100355.94
2023-03-16T06:16:08.028Z,100343.09
2023-03-16T06:18:36.404Z,100362.72
2023-03-16T06:21:04.538Z,100353.63
2023-03-16T06:23:34.147Z,100363.94
2023-03-16T06:26:02.041Z,100379.09
2023-03-16T06:28:31.555Z,100362.72
2023-03-16T06:30:59.053Z,100362.78
2023-03-16T06:33:30.346Z,100370.72
2023-03-16T06:35:57.830Z,100386.13
2023-03-16T06:38:32.446Z,100381.56
2023-03-16T06:41:02.848Z,100365.97
2023-03-16T06:43:33.335Z,100377.38
2023-03-16T06:46:01.757Z,100382.94
2023-03-16T06:48:29.645Z,100376.28
2023-03-16T06:50:58.648Z,100394.63
2023-03-16T06:53:28.192Z,100378.69
2023-03-16T06:55:57.003Z,100404.81
2023-03-16T06:58:25.471Z,100420.75
2023-03-16T07:00:54.146Z,100420.94
2023-03-16T07:03:21.812Z,100408.13
2023-03-16T07:05:59.264Z,100395.19
2023-03-16T07:08:30.505Z,100429.97
2023-03-16T07:10:58.250Z,100417.03
2023-03-16T07:13:55.934Z,100418.06
2023-03-16T07:16:26.510Z,100424.72
2023-03-16T07:18:58.991Z,100427.19
2023-03-16T07:21:29.059Z,100431.53
2023-03-16T07:24:02.472Z,100431.94
2023-03-16T07:37:47.400Z,100431.34
2023-03-16T07:40:28.655Z,100456.66
2023-03-16T07:43:10.698Z,100441.38
2023-03-16T07:45:51.370Z,100452.00
2023-03-16T07:48:19.998Z,100478.72
2023-03-16T07:50:54.386Z,100471.53
2023-03-16T07:53:22.831Z,100468.38
2023-03-16T07:55:55.953Z,100455.66
2023-03-16T07:58:23.324Z,100451.59
2023-03-16T08:00:51.249Z,100469.75
2023-03-16T08:03:20.082Z,100462.09
2023-03-16T08:05:47.768Z,100486.81
2023-03-16T08:08:16.801Z,100500.50
2023-03-16T08:10:44.562Z,100480.38
2023-03-16T08:13:15.595Z,100482.03
2023-03-16T08:15:58.542Z,100484.00
2023-03-16T08:18:37.452Z,100485.09
2023-03-16T08:21:05.873Z,100484.34
2023-03-16T08:23:33.996Z,100494.91
2023-03-16T08:26:01.375Z,100474.00
2023-03-16T08:28:29.806Z,100497.41
2023-03-16T08:31:01.437Z,100505.59
2023-03-16T08:33:42.820Z,100495.03
2023-03-16T08:36:12.314Z,100496.16
2023-03-16T08:38:41.056Z,100514.00
2023-03-16T08:41:12.608Z,100493.88
2023-03-16T08:43:44.523Z,100495.84
2023-03-16T08:46:13.442Z,100513.41
2023-03-16T08:48:48.680Z,100512.19
2023-03-16T08:51:17.602Z,100501.03
2023-03-16T08:53:45.354Z,100482.66
2023-03-16T08:56:14.295Z,100490.47
2023-03-16T08:58:45.440Z,100495.84
2023-03-16T09:01:14.025Z,100486.72
2023-03-16T09:03:42.534Z,100489.50
2023-03-16T09:06:11.139Z,100516.34
2023-03-16T09:08:41.297Z,100516.72
2023-03-16T09:11:10.500Z,100516.25
2023-03-16T09:13:38.796Z,100525.44
2023-03-16T09:16:07.486Z,100523.19
2023-03-16T09:18:36.362Z,100524.75
2023-03-16T09:21:05.476Z,100533.91
2023-03-16T09:23:32.990Z,100533.44
2023-03-16T09:26:05.517Z,100536.66
2023-03-16T09:28:33.220Z,100529.78
2023-03-16T09:31:01.558Z,100529.28
2023-03-16T09:33:30.051Z,100541.75
2023-03-16T09:35:57.647Z,100527.03
2023-03-16T09:38:27.565Z,100537.81
2023-03-16T09:41:04.998Z,100531.13
2023-03-16T09:43:43.319Z,100550.41
2023-03-16T09:46:30.284Z,100534.34
2023-03-16T09:48:58.090Z,100522.31
2023-03-16T09:51:43.491Z,100557.22
2023-03-16T09:54:23.643Z,100523.81
2023-03-16T09:56:51.214Z,100556.34
2023-03-16T09:59:19.145Z,100548.97
2023-03-16T10:02:05.093Z,100577.72
2023-03-16T10:04:32.396Z,100560.66
2023-03-16T10:07:22.780Z,100562.47
2023-03-16T10:10:04.746Z,100570.16
2023-03-16T10:12:38.193Z,100565.97
2023-03-16T10:15:16.999Z,100545.88
2023-03-16T10:17:52.760Z,100574.50
2023-03-16T10:20:21.717Z,100567.47
2023-03-16T10:22:50.974Z,100565.50
2023-03-16T10:25:44.070Z,100567.59
2023-03-16T10:28:13.734Z,100556.41
2023-03-16T10:30:43.014Z,100555.88
2023-03-16T10:33:25.946Z,100541.06
2023-03-16T10:35:53.157Z,100573.47
2023-03-16T10:38:50.676Z,100572.63
2023-03-16T10:41:18.073Z,100571.47
2023-03-16T10:43:52.919Z,100564.03
2023-03-16T10:46:20.277Z,100549.84
2023-03-16T10:49:01.593Z,100555.66
2023-03-16T10:51:36.161Z,100554.22
2023-03-16T10:54:27.784Z,100564.72
2023-03-16T10:56:55.448Z,100562.72
2023-03-16T10:59:29.561Z,100546.06
2023-03-16T11:01:57.195Z,100561.81
2023-03-16T11:04:25.177Z,100558.16
2023-03-16T11:06:56.572Z,100558.31
2023-03-16T11:09:26.189Z,100546.78
2023-03-16T11:11:54.020Z,100534.41
2023-03-16T11:14:23.381Z,100544.34
2023-03-16T11:16:59.249Z,100525.38
2023-03-16T11:19:31.446Z,100559.22
2023-03-16T11:21:59.000Z,100561.50
2023-03-16T11:24:42.255Z,100556.28
2023-03-16T11:27:24.673Z,100543.75
2023-03-16T11:30:07.278Z,100551.03
2023-03-16T11:32:41.607Z,100559.44
2023-03-16T11:35:17.728Z,100551.38
2023-03-16T11:38:07.829Z,100539.94
2023-03-16T11:40:44.071Z,100560.03
2023-03-16T11:43:36.326Z,100543.72
2023-03-16T11:46:14.074Z,100531.13
2023-03-16T11:48:47.415Z,100555.34
2023-03-16T11:51:30.614Z,100550.34
2023-03-16T11:54:07.866Z,100572.34
2023-03-16T11:56:39.639Z,100558.31
2023-03-16T11:59:19.041Z,100570.19
2023-03-16T12:02:00.128Z,100550.63
2023-03-16T12:04:43.101Z,100564.75
2023-03-16T12:07:21.917Z,100561.38
2023-03-16T12:10:08.000Z,100557.81
2023-03-16T12:12:42.755Z,100550.09
2023-03-16T12:15:24.377Z,100556.91
2023-03-16T12:17:54.037Z,100515.03
2023-03-16T12:20:31.759Z,100549.78
2023-03-16T12:23:02.936Z,100545.88
2023-03-16T12:25:32.908Z,100551.88
2023-03-16T12:28:02.153Z,100545.91
2023-03-16T12:30:38.693Z,100554.75
2023-03-16T12:33:28.413Z,100546.53
2023-03-16T12:36:22.636Z,100545.09
2023-03-16T12:38:53.372Z,100550.53
2023-03-16T12:41:33.845Z,100543.44
2023-03-16T12:44:12.810Z,100530.41
2023-03-16T12:47:07.956Z,100535.50
2023-03-16T12:49:36.537Z,100554.59
2023-03-16T12:52:10.096Z,100541.38
2023-03-16T12:54:49.920Z,100539.72
2023-03-16T12:57:18.605Z,100555.34
2023-03-16T12:59:47.122Z,100552.53
2023-03-16T13:02:26.467Z,100559.13
2023-03-16T13:05:01.733Z,100556.50
2023-03-16T13:07:31.172Z,100561.56
2023-03-16T13:10:10.056Z,100558.41
2023-03-16T13:12:38.304Z,100569.00
2023-03-16T13:15:19.995Z,100571.00
2023-03-16T13:17:48.099Z,100568.22
2023-03-16T13:20:32.018Z,100564.19
2023-03-16T13:23:09.881Z,100546.31
2023-03-16T13:25:44.632Z,100552.34
2023-03-16T13:28:15.595Z,100552.09
2023-03-16T13:30:48.677Z,100558.84
2023-03-16T13:33:20.596Z,100567.16
2023-03-16T13:35:49.075Z,100561.84
2023-03-16T13:38:16.847Z,100573.56
2023-03-16T13:40:48.705Z,100563.69
2023-03-16T13:43:17.250Z,100578.53
2023-03-16T13:45:44.589Z,100556.34
2023-03-16T13:48:16.310Z,100563.34
2023-03-16T13:50:44.571Z,100576.75
2023-03-16T13:53:24.704Z,100582.84
2023-03-16T13:55:52.854Z,100580.81
2023-03-16T13:58:26.627Z,100560.72
2023-03-16T14:00:58.080Z,100576.16
2023-03-16T14:03:38.008Z,100578.72
2023-03-16T14:06:06.191Z,100588.53
2023-03-16T14:08:33.915Z,100595.00
2023-03-16T14:11:01.698Z,100577.25
2023-03-16T14:13:39.307Z,100586.25
2023-03-16T14:16:12.947Z,100570.84
2023-03-16T14:19:02.129Z,100595.16
2023-03-16T14:21:34.265Z,100577.47
2023-03-16T14:24:06.336Z,100590.16
2023-03-16T14:26:44.819Z,100579.69
2023-03-16T14:29:30.575Z,100591.50
2023-03-16T14:31:59.144Z,100607.75
2023-03-16T14:34:37.268Z,100597.25
2023-03-16T14:37:14.820Z,100616.72
2023-03-16T14:39:42.266Z,100600.25
2023-03-16T14:42:28.767Z,100601.34
2023-03-16T14:45:00.003Z,100605.78
2023-03-16T14:47:32.102Z,100597.97
2023-03-16T14:50:04.623Z,100601.44
2023-03-16T14:52:32.709Z,100613.81
2023-03-16T14:55:03.306Z,100613.75
2023-03-16T14:57:31.350Z,100610.06
2023-03-16T14:59:58.679Z,100615.72
2023-03-16T15:02:28.859Z,100623.72
2023-03-16T15:04:58.905Z,100618.91
2023-03-16T15:07:40.504Z,100627.00
2023-03-16T15:10:24.860Z,100611.81
2023-03-16T15:12:55.030Z,100599.97
2023-03-16T15:15:23.628Z,100617.47
2023-03-16T15:17:51.923Z,100616.56
2023-03-16T15:20:22.656Z,100614.66
2023-03-16T15:22:51.939Z,100633.00
2023-03-16T15:25:28.129Z,100640.41
2023-03-16T15:27:55.508Z,100644.03
2023-03-16T15:30:26.642Z,100643.56
2023-03-16T15:36:53.603Z,100632.91
2023-03-16T15:39:22.336Z,100638.56
2023-03-16T15:41:50.520Z,100656.63
2023-03-16T15:44:17.914Z,100649.94
2023-03-16T15:46:48.711Z,100662.06
2023-03-16T15:49:16.070Z,100674.38
2023-03-16T15:51:43.510Z,100647.84
2023-03-16T15:54:11.683Z,100672.09
2023-03-16T15:56:53.231Z,100675.69
2023-03-16T15:59:23.401Z,100669.13
2023-03-16T16:01:50.758Z,100671.69
2023-03-16T16:04:20.153Z,100677.88
2023-03-16T16:06:47.951Z,100694.63
2023-03-16T16:09:15.199Z,100687.81
2023-03-16T16:11:42.532Z,100692.19
2023-03-16T16:14:13.783Z,100689.63
2023-03-16T16:16:41.088Z,100683.53
2023-03-16T16:19:13.381Z,100693.56
2023-03-16T16:21:41.559Z,100699.59
2023-03-16T16:24:09.617Z,100694.94
2023-03-16T16:26:50.020Z,100700.28
2023-03-16T16:29:22.448Z,100720.69
2023-03-16T16:31:51.556Z,100715.38
2023-03-16T16:34:27.251Z,100724.94
2023-03-16T16:36:55.251Z,100721.59
2023-03-16T16:39:22.563Z,100735.31
2023-03-16T16:41:50.404Z,100734.34
2023-03-16T16:44:20.035Z,100745.47
2023-03-16T16:46:48.137Z,100738.53
2023-03-16T16:49:23.823Z,100739.13
2023-03-16T16:51:52.414Z,100754.03
2023-03-16T16:54:29.618Z,100754.72
2023-03-16T16:56:57.559Z,100767.03
2023-03-16T16:59:32.449Z,100764.94
2023-03-16T17:02:00.788Z,100756.59
2023-03-16T17:04:28.891Z,100766.28
2023-03-16T17:06:58.944Z,100753.78
2023-03-16T17:09:27.244Z,100773.00
2023-03-16T17:11:56.220Z,100768.00
2023-03-16T17:14:28.468Z,100761.00
2023-03-16T17:16:56.185Z,100779.19
2023-03-16T17:19:25.168Z,100752.03
2023-03-16T17:21:52.990Z,100769.94
2023-03-16T17:24:20.280Z,100786.34
2023-03-16T17:26:52.301Z,100792.19
2023-03-16T17:29:25.695Z,100769.00
2023-03-16T17:31:53.279Z,100791.25
2023-03-16T17:34:22.415Z,100785.16
2023-03-16T17:36:49.851Z,100780.88
2023-03-16T17:39:25.030Z,100786.00
2023-03-16T17:41:54.333Z,100779.44
2023-03-16T17:44:21.690Z,100798.25
2023-03-16T17:46:49.036Z,100794.00
2023-03-16T17:49:20.703Z,100800.41
2023-03-16T17:51:47.969Z,100803.03
2023-03-16T17:54:15.324Z,100800.19
2023-03-16T17:56:50.603Z,100793.16
2023-03-16T17:59:21.650Z,100810.84
2023-03-16T18:01:49.038Z,100818.44
2023-03-16T18:04:21.181Z,100821.69
2023-03-16T18:06:49.191Z,100821.78
2023-03-16T18:09:16.927Z,100819.25
2023-03-16T18:11:51.195Z,100826.16
2023-03-16T18:14:37.148Z,100798.38
2023-03-16T18:17:23.127Z,100828.81
2023-03-16T18:19:50.344Z,100825.28
2023-03-16T18:22:19.505Z,100822.44
2023-03-16T18:24:48.481Z,100819.59
2023-03-16T18:27:16.218Z,100818.63
2023-03-16T18:29:44.470Z,100834.06
2023-03-16T18:32:27.445Z,100832.41
2023-03-16T18:34:54.868Z,100815.03
2023-03-16T18:37:23.577Z,100846.44
2023-03-16T18:39:51.606Z,100855.78
2023-03-16T18:42:20.107Z,100834.84
2023-03-16T18:44:47.486Z,100858.59
2023-03-16T18:47:17.210Z,100840.75
2023-03-16T18:49:49.593Z,100834.63
2023-03-16T18:52:27.974Z,100848.25
2023-03-16T18:54:55.795Z,100850.41
2023-03-16T18:57:24.639Z,100823.56
2023-03-16T18:59:52.243Z,100818.59
2023-03-16T19:02:30.290Z,100861.78
2023-03-16T19:04:58.466Z,100859.59
2023-03-16T19:07:32.884Z,100867.53
2023-03-16T19:10:02.501Z,100870.75
2023-03-16T19:12:31.160Z,100876.13
2023-03-16T19:14:58.417Z,100879.97
2023-03-16T19:17:26.018Z,100891.44
2023-03-16T19:19:53.300Z,100862.41
2023-03-16T19:22:21.912Z,100882.75
2023-03-16T19:24:53.160Z,100898.50
2023-03-16T19:27:33.639Z,100904.97
2023-03-16T19:30:00.920Z,100894.13
2023-03-16T19:32:28.221Z,100892.00
2023-03-16T19:34:55.740Z,100898.41
2023-03-16T19:37:25.013Z,100905.09
2023-03-16T19:39:52.321Z,100908.03
2023-03-16T19:42:26.620Z,100895.59
2023-03-16T19:44:53.889Z,100909.16
2023-03-16T19:47:29.500Z,100919.06
2023-03-16T19:49:57.488Z,100927.28
2023-03-16T19:52:25.491Z,100927.31
2023-03-16T19:54:52.733Z,100928.38
2023-03-16T19:57:20.084Z,100926.50
2023-03-16T19:59:53.560Z,100909.72
2023-03-16T20:02:35.746Z,100894.78
2023-03-16T20:05:03.698Z,100920.66
2023-03-16T20:07:34.505Z,100928.69
2023-03-16T20:10:02.042Z,100936.66
2023-03-16T20:12:29.402Z,100938.50
2023-03-16T20:14:57.191Z,100918.25
2023-03-16T20:17:28.727Z,100937.16
2023-03-16T20:19:56.502Z,100938.47
2023-03-16T20:22:28.179Z,100936.31
2023-03-16T20:24:57.945Z,100952.31
2023-03-16T20:27:27.730Z,100956.56
2023-03-16T20:29:55.026Z,100965.63
2023-03-16T20:32:24.727Z,100972.81
2023-03-16T20:34:53.625Z,100970.41
2023-03-16T20:37:23.870Z,100943.44
2023-03-16T20:39:54.943Z,100972.22
2023-03-16T20:42:33.107Z,100968.75
2023-03-16T20:45:00.898Z,100958.53
2023-03-16T20:47:28.218Z,100976.13
2023-03-16T20:49:57.428Z,100964.94
2023-03-16T20:52:27.697Z,100977.16
2023-03-16T20:54:57.323Z,100975.84
2023-03-16T20:57:26.158Z,100987.38
2023-03-16T20:59:54.625Z,100983.88
2023-03-16T21:02:33.889Z,100970.81
2023-03-16T21:05:02.136Z,100984.72
2023-03-16T21:07:29.837Z,100979.34
2023-03-16T21:09:57.146Z,100970.81
2023-03-16T21:12:34.859Z,100986.53
2023-03-16T21:15:02.657Z,100970.22
2023-03-16T21:17:34.329Z,100963.25
2023-03-16T21:20:01.716Z,100988.84
2023-03-16T21:22:32.684Z,100973.69
2023-03-16T21:24:59.965Z,100990.94
2023-03-16T21:27:31.385Z,100989.34
2023-03-16T21:30:00.647Z,100998.41
2023-03-16T21:32:27.999Z,100979.72
2023-03-16T21:34:55.349Z,100993.66
2023-03-16T21:37:24.254Z,100978.91
2023-03-16T21:39:54.706Z,100984.53
2023-03-16T21:42:22.227Z,100987.72
2023-03-16T21:44:49.460Z,100986.94
2023-03-16T21:47:25.786Z,100994.66
2023-03-16T21:49:54.642Z,100971.94
2023-03-16T21:52:27.815Z,100981.72
2023-03-16T21:54:55.723Z,100996.19
2023-03-16T21:57:22.988Z,100972.66
2023-03-16T21:59:50.510Z,100988.66
2023-03-16T22:02:23.176Z,100990.81
2023-03-16T22:04:51.135Z,100984.38
2023-03-16T22:07:18.637Z,101003.88
2023-03-16T22:09:46.001Z,100991.03
2023-03-16T22:12:13.376Z,100991.28
2023-03-16T22:14:40.732Z,101007.25
2023-03-16T22:17:08.561Z,101001.31
2023-03-16T22:19:35.894Z,101010.34
2023-03-16T22:22:03.174Z,101011.34
2023-03-16T22:24:30.886Z,100995.91
2023-03-16T22:26:58.629Z,101004.69
2023-03-16T22:29:30.236Z,101006.03
2023-03-16T22:31:59.510Z,100986.53
2023-03-16T22:34:32.588Z,101005.34
2023-03-16T22:36:59.809Z,101007.50
2023-03-16T22:39:27.152Z,101000.28
2023-03-16T22:41:54.457Z,101017.06
2023-03-16T22:44:22.807Z,101011.94
2023-03-16T22:46:50.794Z,101013.06
2023-03-16T22:49:20.931Z,101019.31
2023-03-16T22:51:48.229Z,101014.50
2023-03-16T22:54:16.670Z,101013.84
2023-03-16T22:56:44.583Z,101000.34
2023-03-16T22:59:14.148Z,101020.31
2023-03-16T23:01:43.562Z,100998.47
2023-03-16T23:04:15.359Z,101009.09
2023-03-16T23:06:43.410Z,100996.50
2023-03-16T23:09:15.357Z,101018.13
2023-03-16T23:11:43.693Z,101006.88
2023-03-16T23:14:15.071Z,101010.09
2023-03-16T23:16:42.572Z,101010.09
2023-03-16T23:19:30.029Z,101004.06
2023-03-16T23:22:03.419Z,101008.13
2023-03-16T23:24:31.803Z,101010.97
2023-03-16T23:26:59.144Z,101021.31
2023-03-16T23:29:26.757Z,101024.75
2023-03-16T23:31:54.628Z,101003.91
2023-03-16T23:34:23.152Z,101020.75
2023-03-16T23:36:50.902Z,101010.13
2023-03-16T23:39:18.505Z,101027.91
2023-03-16T23:41:46.912Z,100994.16
2023-03-16T23:44:24.966Z,101009.03
2023-03-16T23:46:53.567Z,101019.97
2023-03-16T23:49:22.887Z,101023.44
2023-03-16T23:51:50.317Z,101015.31
2023-03-16T23:54:19.786Z,101020.63
2023-03-16T23:56:47.158Z,101008.81
2023-03-16T23:59:14.536Z,101021.25
